Time;durP1;ratioP1;P1;durP2;ratioP2;P2;SDS_P1;SDS_P2;PMS_P1;PMS_P2;Temp;Humidity;BMP_temperature;BMP_pressure;BME280_temperature;BME280_humidity;BME280_pressure;Samples;Min_cycle;Max_cycle;Signal;HPM_P1;HPM_P2
2021/01/17 05:13:11;;;;;;;32.20;15.25;;;;;;;-4.23;100.00;96241.00;5073921;27;20402;-46
2021/01/17 05:15:40;;;;;;;35.47;16.83;;;;;;;-4.15;100.00;96239.81;5062570;28;20047;-46
2021/01/17 05:18:08;;;;;;;33.75;17.95;;;;;;;-4.17;100.00;96245.91;5051459;28;20037;-49
2021/01/17 05:20:35;;;;;;;31.42;16.15;;;;;;;-4.11;100.00;96243.09;5060452;28;20075;-44
2021/01/17 05:23:08;;;;;;;36.60;17.17;;;;;;;-4.04;100.00;96244.53;5058063;27;20033;-46
2021/01/17 05:25:36;;;;;;;37.67;17.55;;;;;;;-3.95;100.00;96244.19;5047208;28;20044;-46
2021/01/17 05:28:03;;;;;;;38.30;18.83;;;;;;;-3.96;100.00;96244.22;5064331;28;20045;-45
2021/01/17 05:30:31;;;;;;;39.03;17.77;;;;;;;-3.97;100.00;96234.81;5073998;27;20411;-46
2021/01/17 05:33:05;;;;;;;32.85;17.17;;;;;;;-3.96;100.00;96242.47;5057799;28;20289;-43
2021/01/17 05:35:32;;;;;;;32.20;16.23;;;;;;;-3.93;100.00;96246.69;5062436;28;20083;-48
2021/01/17 05:37:59;;;;;;;32.10;16.77;;;;;;;-3.93;100.00;96244.09;5048051;28;20068;-44
2021/01/17 05:40:33;;;;;;;31.77;15.65;;;;;;;-3.88;100.00;96245.59;5057187;28;20813;-45
2021/01/17 05:43:00;;;;;;;31.83;16.23;;;;;;;-3.70;100.00;96249.16;5057649;28;20094;-47
2021/01/17 05:45:26;;;;;;;33.08;15.98;;;;;;;-3.65;100.00;96242.09;5056171;28;20529;-49
2021/01/17 05:48:14;;;;;;;29.27;14.82;;;;;;;-3.73;100.00;96241.56;5077724;28;20051;-42
2021/01/17 05:50:45;;;;;;;27.10;14.02;;;;;;;-3.76;100.00;96235.69;5078189;28;20117;-47
2021/01/17 05:53:12;;;;;;;25.23;12.95;;;;;;;-3.77;100.00;96241.75;5051117;27;20136;-45
2021/01/17 05:55:40;;;;;;;24.20;13.32;;;;;;;-3.86;100.00;96245.53;5055208;28;20040;-48
2021/01/17 05:58:23;;;;;;;24.65;12.90;;;;;;;-3.86;100.00;96251.50;5061122;28;20047;-45
2021/01/17 06:00:52;;;;;;;25.20;12.57;;;;;;;-3.83;100.00;96250.56;5069013;27;20044;-44
2021/01/17 06:03:21;;;;;;;26.02;13.13;;;;;;;-3.77;100.00;96260.63;5045705;28;20053;-44
2021/01/17 06:05:50;;;;;;;23.85;12.65;;;;;;;-3.68;100.00;96259.38;5054797;28;20110;-45
2021/01/17 06:08:20;;;;;;;24.38;12.63;;;;;;;-3.72;100.00;96263.81;5065599;28;20123;-47
2021/01/17 06:10:48;;;;;;;25.85;12.88;;;;;;;-3.63;100.00;96257.47;5068643;27;20074;-45
2021/01/17 06:13:25;;;;;;;27.42;12.57;;;;;;;-3.64;100.00;96254.06;5066716;28;20072;-45
2021/01/17 06:15:53;;;;;;;26.75;13.15;;;;;;;-3.59;100.00;96254.69;5072513;28;20511;-44
2021/01/17 06:18:22;;;;;;;20.63;11.23;;;;;;;-3.58;100.00;96251.25;5069087;27;20049;-46
2021/01/17 06:20:57;;;;;;;23.30;11.45;;;;;;;-3.59;100.00;96257.28;5073967;28;20462;-44
2021/01/17 06:23:24;;;;;;;20.20;11.40;;;;;;;-3.63;100.00;96258.31;5056276;28;20043;-48
2021/01/17 06:26:02;;;;;;;19.85;10.52;;;;;;;-3.69;100.00;96255.97;5059860;28;20274;-45
2021/01/17 06:28:38;;;;;;;22.00;10.63;;;;;;;-3.67;100.00;96251.59;5055069;28;20048;-44
2021/01/17 06:31:07;;;;;;;21.60;11.05;;;;;;;-3.62;100.00;96252.25;5060456;28;20090;-43
2021/01/17 06:33:35;;;;;;;21.45;10.93;;;;;;;-3.54;100.00;96253.66;5057555;28;20132;-47
2021/01/17 06:36:12;;;;;;;19.33;9.68;;;;;;;-3.50;100.00;96265.53;5052175;28;20037;-45
2021/01/17 06:38:39;;;;;;;18.98;10.23;;;;;;;-3.50;100.00;96265.53;5060516;28;20503;-45
2021/01/17 06:41:07;;;;;;;19.38;9.77;;;;;;;-3.46;100.00;96262.75;5058306;28;20370;-45
2021/01/17 06:43:39;;;;;;;19.85;10.13;;;;;;;-3.44;100.00;96266.13;5040672;28;20049;-45
2021/01/17 06:46:07;;;;;;;20.60;10.70;;;;;;;-3.39;100.00;96260.75;5043607;28;20049;-46
2021/01/17 06:48:35;;;;;;;20.80;11.00;;;;;;;-3.46;100.00;96260.19;5045667;28;20045;-44
2021/01/17 06:51:19;;;;;;;20.17;10.75;;;;;;;-3.51;100.00;96259.56;5061760;28;20044;-45
2021/01/17 06:53:54;;;;;;;20.08;10.13;;;;;;;-3.58;100.00;96256.38;5065738;28;20052;-44
2021/01/17 06:56:21;;;;;;;20.83;10.50;;;;;;;-3.57;100.00;96259.81;5048324;28;20064;-45
2021/01/17 06:58:51;;;;;;;20.58;10.93;;;;;;;-3.58;100.00;96255.53;5045985;28;20073;-44
2021/01/17 07:01:26;;;;;;;26.48;14.23;;;;;;;-3.55;100.00;96260.56;5028109;28;20041;-42
2021/01/17 07:04:18;;;;;;;51.38;24.02;;;;;;;-3.47;100.00;96260.25;5039301;28;20042;-45
2021/01/17 07:07:11;;;;;;;21.70;11.38;;;;;;;-3.48;100.00;96259.41;5033394;28;20102;-44
2021/01/17 07:09:47;;;;;;;21.95;11.43;;;;;;;-3.41;100.00;96270.28;5009476;28;20098;-45
2021/01/17 07:12:20;;;;;;;18.05;9.80;;;;;;;-3.43;100.00;96277.25;5033240;28;20064;-44
2021/01/17 07:14:57;;;;;;;19.38;10.55;;;;;;;-3.21;100.00;96272.88;5035998;28;20042;-42
2021/01/17 07:17:26;;;;;;;20.90;10.90;;;;;;;-3.09;100.00;96278.41;5064523;28;20032;-43
2021/01/17 07:19:54;;;;;;;;;;;;;;;-3.14;100.00;96266.53;5045968;28;20053;-44
2021/01/17 07:22:21;;;;;;;;;;;;;;;-3.13;100.00;96269.97;5044445;28;19990;-43
2021/01/17 07:24:48;;;;;;;;;;;;;;;-3.30;100.00;96273.28;5037631;28;19917;-46
2021/01/17 07:27:15;;;;;;;;;;;;;;;-3.09;100.00;96276.69;5030531;28;19925;-42
2021/01/17 07:29:43;;;;;;;;;;;;;;;-3.01;100.00;96273.75;5057511;28;19928;-43
2021/01/17 07:32:25;;;;;;;;;;;;;;;-2.98;100.00;96278.78;5054760;28;19921;-46
2021/01/17 07:34:53;;;;;;;;;;;;;;;-2.92;100.00;96273.38;5057905;28;19927;-42
2021/01/17 07:37:22;;;;;;;;;;;;;;;-2.94;100.00;96273.41;5052327;28;19921;-44
2021/01/17 07:39:53;;;;;;;;;;;;;;;-3.11;100.00;96274.16;5051033;28;19960;-42
2021/01/17 07:42:19;;;;;;;;;;;;;;;-3.04;100.00;96276.47;5057560;28;19917;-43
2021/01/17 07:44:46;;;;;;;;;;;;;;;-2.91;100.00;96277.59;5059250;28;19975;-45
2021/01/17 07:47:13;;;;;;;;;;;;;;;-2.87;100.00;96281.72;5049446;28;19920;-46
2021/01/17 07:49:40;;;;;;;;;;;;;;;-2.73;100.00;96286.28;5052905;28;19920;-44
2021/01/17 07:52:06;;;;;;;;;;;;;;;-2.61;100.00;96275.41;5057503;28;20032;-45
2021/01/17 07:54:34;;;;;;;;;;;;;;;-2.56;100.00;96273.44;5060882;28;19921;-45
2021/01/17 07:57:03;;;;;;;;;;;;;;;-2.63;100.00;96274.63;5064570;28;19981;-44
2021/01/17 07:59:31;;;;;;;;;;;;;;;-2.73;100.00;96289.69;5056300;28;19960;-43
2021/01/17 08:01:57;;;;;;;;;;;;;;;-2.67;100.00;96289.44;5054730;28;19931;-46
2021/01/17 08:04:25;;;;;;;;;;;;;;;-2.51;100.00;96288.72;5050759;28;19978;-44
2021/01/17 08:06:54;;;;;;;;;;;;;;;-2.46;100.00;96292.78;5061755;28;19960;-46
2021/01/17 08:09:40;;;;;;;;;;;;;;;-2.47;100.00;96295.44;5054349;28;19974;-44
2021/01/17 08:12:08;;;;;;;;;;;;;;;-2.28;100.00;96296.25;5050668;28;19964;-42
2021/01/17 08:14:35;;;;;;;;;;;;;;;-2.25;100.00;96290.97;5064567;28;19921;-43
2021/01/17 08:17:05;;;;;;;;;;;;;;;-2.35;100.00;96291.47;5059046;27;19970;-44
2021/01/17 08:19:33;;;;;;;;;;;;;;;-2.35;100.00;96297.44;5053854;28;20011;-45
2021/01/17 08:22:10;;;;;;;;;;;;;;;-2.08;100.00;96290.19;5046300;28;19958;-44
2021/01/17 08:24:37;;;;;;;;;;;;;;;-1.88;100.00;96286.66;5048959;28;19921;-45
2021/01/17 08:27:04;;;;;;;;;;;;;;;-1.73;100.00;96285.06;5064999;27;19928;-44
2021/01/17 08:29:32;;;;;;;;;;;;;;;-1.64;98.14;96287.22;5057027;28;19921;-48
2021/01/17 08:31:59;;;;;;;;;;;;;;;-2.18;99.48;96282.00;5055159;28;19926;-47
2021/01/17 08:34:26;;;;;;;;;;;;;;;-2.03;100.00;96285.66;5055878;28;19946;-43
2021/01/17 08:36:53;;;;;;;;;;;;;;;-1.56;98.60;96279.91;5051064;28;19939;-46
2021/01/17 08:39:39;;;;;;;;;;;;;;;-1.43;95.80;96282.75;5026587;28;20302;-43
2021/01/17 08:42:20;;;;;;;;;;;;;;;-1.02;93.96;96287.59;5032455;28;19929;-47
2021/01/17 08:44:48;;;;;;;;;;;;;;;-0.98;92.90;96286.53;5031657;28;19986;-44
2021/01/17 08:47:19;;;;;;;;;;;;;;;-0.90;90.41;96284.38;5028702;28;19939;-45
2021/01/17 08:49:46;;;;;;;;;;;;;;;-0.87;90.13;96285.97;5034413;28;19921;-43
2021/01/17 08:52:13;;;;;;;;;;;;;;;-0.76;90.54;96283.66;5042251;28;19920;-45
2021/01/17 08:54:48;;;;;;;;;;;;;;;-0.73;88.63;96292.09;5056795;28;20007;-43
2021/01/17 08:57:30;;;;;;;;;;;;;;;-1.31;90.20;96302.84;5039468;28;20015;-44
2021/01/17 08:59:58;;;;;;;;;;;;;;;-1.20;91.50;96304.91;5063130;28;19920;-49
2021/01/17 09:02:24;;;;;;;;;;;;;;;-1.32;91.71;96313.25;5039789;28;19960;-49
2021/01/17 09:04:52;;;;;;;;;;;;;;;-0.96;90.56;96320.94;5049688;28;19956;-45
2021/01/17 09:07:32;;;;;;;;;;;;;;;-0.80;89.50;96318.38;5047485;28;19927;-42
2021/01/17 09:10:03;;;;;;;;;;;;;;;-0.25;86.49;96316.31;5033285;28;19982;-46
2021/01/17 09:12:32;;;;;;;;;;;;;;;0.03;84.39;96308.81;5033190;28;19921;-44
2021/01/17 09:14:59;;;;;;;;;;;;;;;-0.16;82.29;96317.59;5036816;28;20621;-44
2021/01/17 09:17:26;;;;;;;;;;;;;;;-0.10;82.96;96322.44;5064442;28;19975;-46
2021/01/17 09:19:55;;;;;;;;;;;;;;;0.13;81.54;96318.59;5040221;28;20361;-46
2021/01/17 09:22:22;;;;;;;;;;;;;;;0.52;79.85;96324.22;5028239;28;19925;-46
2021/01/17 09:24:49;;;;;;;;;;;;;;;0.38;79.75;96327.59;5045053;28;20016;-44
2021/01/17 09:27:18;;;;;;;;;;;;;;;0.50;80.31;96329.50;5039742;28;19924;-44
2021/01/17 09:29:45;;;;;;;;;;;;;;;0.68;79.03;96327.63;5046671;28;20007;-44
2021/01/17 09:32:14;;;;;;;;;;;;;;;0.73;78.16;96325.63;5043028;28;20331;-43
2021/01/17 09:34:41;;;;;;;;;;;;;;;0.86;77.89;96330.94;5044538;28;20014;-48
2021/01/17 09:37:10;;;;;;;;;;;;;;;1.02;77.33;96338.69;5035903;28;20524;-47
2021/01/17 09:39:41;;;;;;;;;;;;;;;1.24;75.91;96338.25;5037578;28;19920;-46
2021/01/17 09:42:09;;;;;;;13.63;8.48;;;;;;;0.91;75.81;96341.91;5046443;28;20003;-48
2021/01/17 09:44:37;;;;;;;13.90;9.02;;;;;;;0.70;77.51;96341.38;5057676;28;20044;-46
2021/01/17 09:47:12;;;;;;;18.27;8.88;;;;;;;0.72;77.65;96344.69;5052590;28;20730;-45
2021/01/17 09:49:40;;;;;;;15.23;9.18;;;;;;;1.03;76.87;96350.72;5055132;28;20045;-46
2021/01/17 09:52:11;;;;;;;13.88;9.18;;;;;;;1.28;76.62;96350.16;5054323;28;20048;-42
2021/01/17 09:54:38;;;;;;;15.68;9.85;;;;;;;1.03;75.98;96350.72;5055817;28;20039;-47
2021/01/17 09:57:13;;;;;;;14.82;9.27;;;;;;;1.01;76.40;96358.63;5053656;28;20041;-44
2021/01/17 09:59:40;;;;;;;;;;;;;;;1.51;73.94;96360.00;5060919;28;20111;-46
2021/01/17 10:02:09;;;;;;;15.82;9.02;;;;;;;2.22;72.24;96355.69;5046805;28;19929;-43
2021/01/17 10:04:36;;;;;;;12.82;8.45;;;;;;;2.62;70.15;96351.41;5057558;28;20108;-47
2021/01/17 10:07:04;;;;;;;13.82;9.10;;;;;;;2.65;68.26;96356.41;5055044;28;20052;-52
2021/01/17 10:09:32;;;;;;;13.40;8.73;;;;;;;2.33;68.90;96361.88;5051548;28;20090;-46
2021/01/17 10:12:00;;;;;;;14.38;8.90;;;;;;;2.26;69.70;96371.00;5035602;28;20037;-44
2021/01/17 10:14:29;;;;;;;13.00;8.50;;;;;;;2.12;70.45;96360.63;5067122;28;20049;-43
2021/01/17 10:16:57;;;;;;;13.93;8.38;;;;;;;2.42;69.25;96355.28;5049167;28;20783;-47
2021/01/17 10:19:29;;;;;;;14.75;8.82;;;;;;;1.89;70.74;96359.44;5046116;28;20065;-44
2021/01/17 10:21:57;;;;;;;16.08;9.10;;;;;;;2.28;69.02;96361.34;5057147;28;20040;-44
2021/01/17 10:24:28;;;;;;;13.05;8.65;;;;;;;2.20;69.61;96370.53;5058813;28;20044;-44
2021/01/17 10:26:56;;;;;;;15.07;11.23;;;;;;;3.03;68.35;96369.56;5059744;28;20424;-51
2021/01/17 10:29:25;;;;;;;15.80;11.57;;;;;;;3.02;66.88;96360.03;5053207;28;20430;-47
2021/01/17 10:31:57;;;;;;;16.27;11.70;;;;;;;3.51;65.81;96364.63;5059170;28;20478;-50
2021/01/17 10:34:26;;;;;;;16.20;11.33;;;;;;;4.25;62.65;96356.91;5053860;28;20530;-47
2021/01/17 10:36:55;;;;;;;16.67;12.27;;;;;;;2.98;65.11;96368.16;5065249;28;20986;-47
2021/01/17 10:39:22;;;;;;;18.48;13.32;;;;;;;2.86;66.08;96367.22;5050823;28;20510;-46
2021/01/17 10:41:53;;;;;;;19.33;14.05;;;;;;;2.91;66.71;96361.69;5060222;28;20417;-49
2021/01/17 10:44:23;;;;;;;;;;;;;;;2.31;69.14;96366.34;5053978;28;20041;-43
2021/01/17 10:46:59;;;;;;;19.42;11.95;;;;;;;1.99;70.48;96360.53;5057506;28;19920;-46
2021/01/17 10:49:29;;;;;;;25.45;14.00;;;;;;;1.27;73.45;96358.84;5063706;28;20047;-50
2021/01/17 10:51:59;;;;;;;25.55;14.45;;;;;;;1.18;75.68;96368.03;5055842;28;20140;-45
2021/01/17 10:54:30;;;;;;;25.95;13.88;;;;;;;1.01;75.99;96369.00;5056260;28;20492;-46
2021/01/17 10:57:02;;;;;;;25.00;15.43;;;;;;;1.07;76.26;96373.00;5066558;28;20049;-44
2021/01/17 10:59:30;;;;;;;26.75;15.18;;;;;;;0.93;77.04;96368.63;5050666;28;20400;-46
2021/01/17 11:01:57;;;;;;;26.23;14.93;;;;;;;0.58;77.60;96370.59;5051877;28;20099;-50
2021/01/17 11:04:25;;;;;;;26.05;15.32;;;;;;;0.53;79.32;96363.06;5061060;28;20567;-43
2021/01/17 11:06:57;;;;;;;27.52;15.35;;;;;;;0.76;78.95;96366.97;5058036;28;20037;-44
2021/01/17 11:09:27;;;;;;;23.00;13.52;;;;;;;0.42;78.97;96366.28;5060594;28;21563;-47
2021/01/17 11:11:54;;;;;;;36.67;16.73;;;;;;;0.78;78.63;96372.06;5068795;28;20542;-48
2021/01/17 11:14:26;;;;;;;30.55;15.40;;;;;;;0.64;78.42;96358.09;5041919;28;20132;-45
2021/01/17 11:16:54;;;;;;;33.08;15.18;;;;;;;0.59;78.88;96372.28;5028738;28;20049;-44
2021/01/17 11:19:34;;;;;;;30.95;16.50;;;;;;;0.38;79.58;96363.91;5035726;28;20515;-44
2021/01/17 11:22:01;;;;;;;30.45;16.42;;;;;;;-0.04;83.24;96370.50;5031930;28;20052;-46
2021/01/17 11:24:35;;;;;;;31.83;17.38;;;;;;;0.49;81.31;96371.13;5030775;28;20553;-43
2021/01/17 11:27:13;;;;;;;35.92;17.70;;;;;;;0.94;79.64;96363.31;5036193;28;20056;-47
2021/01/17 11:29:42;;;;;;;31.42;17.95;;;;;;;1.03;78.76;96366.31;5031755;28;20095;-46
2021/01/17 11:32:10;;;;;;;32.70;17.80;;;;;;;0.95;79.75;96375.38;5027898;28;20073;-42
2021/01/17 11:34:39;;;;;;;33.00;17.67;;;;;;;0.51;81.39;96375.28;5053606;28;20041;-46
2021/01/17 11:37:08;;;;;;;33.15;18.50;;;;;;;0.92;81.26;96378.13;5053179;28;20053;-44
2021/01/17 11:39:36;;;;;;;33.63;18.70;;;;;;;0.37;81.08;96388.19;5042256;28;20466;-46
2021/01/17 11:42:03;;;;;;;39.63;19.90;;;;;;;0.51;82.09;96377.03;5037091;28;20095;-44
2021/01/17 11:44:34;;;;;;;36.33;18.60;;;;;;;0.51;80.67;96385.66;5056501;28;20406;-44
2021/01/17 11:47:03;;;;;;;35.40;18.38;;;;;;;1.10;79.94;96388.38;5051618;28;20044;-43
2021/01/17 11:49:31;;;;;;;35.35;19.10;;;;;;;0.94;79.69;96372.88;5056267;28;20502;-50
2021/01/17 11:52:12;;;;;;;36.83;19.35;;;;;;;0.97;81.02;96383.09;5047476;28;20059;-50
2021/01/17 11:54:39;;;;;;;37.15;18.63;;;;;;;0.84;80.98;96380.34;5033662;28;20037;-43
2021/01/17 11:57:09;;;;;;;36.25;19.75;;;;;;;1.02;80.18;96381.06;5034408;28;20063;-44
2021/01/17 11:59:37;;;;;;;36.33;19.58;;;;;;;0.85;80.47;96383.78;5064321;28;20102;-45
2021/01/17 12:02:17;;;;;;;34.33;19.35;;;;;;;0.74;81.56;96380.97;5061147;28;20087;-44
2021/01/17 12:04:45;;;;;;;37.42;19.20;;;;;;;0.94;80.53;96381.50;5049763;28;20044;-44
2021/01/17 12:07:12;;;;;;;37.42;19.48;;;;;;;0.99;80.84;96383.00;5038755;28;20152;-43
2021/01/17 12:09:40;;;;;;;39.17;19.13;;;;;;;1.05;80.32;96383.47;5042353;28;20041;-45
2021/01/17 12:12:12;;;;;;;36.05;18.83;;;;;;;1.05;81.52;96372.25;5036957;28;20045;-47
2021/01/17 12:14:39;;;;;;;35.20;18.00;;;;;;;0.86;81.54;96375.91;5043781;28;20415;-44
2021/01/17 12:17:07;;;;;;;38.63;19.33;;;;;;;0.84;82.58;96384.72;5038950;28;20051;-47
2021/01/17 12:19:36;;;;;;;37.42;20.13;;;;;;;1.09;81.78;96376.34;5042902;28;20047;-44
2021/01/17 12:22:06;;;;;;;38.90;20.23;;;;;;;1.25;81.30;96376.28;4982888;28;20046;-43
2021/01/17 12:24:35;;;;;;;36.67;19.90;;;;;;;1.53;80.34;96373.72;5026136;28;20530;-44
2021/01/17 12:27:03;;;;;;;37.40;19.30;;;;;;;1.47;80.24;96370.66;5054168;28;20066;-44
2021/01/17 12:29:30;;;;;;;37.63;19.30;;;;;;;1.10;80.27;96375.41;5053331;28;20764;-44
2021/01/17 12:31:57;;;;;;;37.50;19.70;;;;;;;0.93;81.49;96377.25;5057886;28;20049;-44
2021/01/17 12:34:25;;;;;;;40.45;21.50;;;;;;;0.76;81.54;96377.38;5067254;28;20116;-49
2021/01/17 12:36:53;;;;;;;37.50;19.85;;;;;;;0.28;83.23;96379.16;5062621;27;20056;-45
2021/01/17 12:39:20;;;;;;;39.42;19.95;;;;;;;0.15;85.47;96373.81;5051083;28;20044;-44
2021/01/17 12:41:51;;;;;;;39.83;20.52;;;;;;;0.28;86.07;96378.34;5056834;28;20056;-44
2021/01/17 12:44:19;;;;;;;42.40;21.20;;;;;;;0.06;86.89;96379.47;5048710;28;20056;-46
2021/01/17 12:46:47;;;;;;;38.88;21.30;;;;;;;0.17;86.66;96381.47;5059087;28;20036;-44
2021/01/17 12:49:15;;;;;;;42.40;21.63;;;;;;;0.19;87.00;96385.66;5051971;28;20036;-44
2021/01/17 12:51:42;;;;;;;43.63;22.58;;;;;;;0.41;86.79;96379.31;5052281;28;20052;-43
2021/01/17 12:54:59;;;;;;;44.05;21.83;;;;;;;0.46;86.20;96387.69;5056486;28;20549;-45
2021/01/17 12:57:29;;;;;;;44.35;22.20;;;;;;;0.57;85.77;96390.50;5053785;28;20060;-42
2021/01/17 12:59:57;;;;;;;45.53;21.65;;;;;;;0.47;84.91;96381.56;5016644;28;20077;-46
2021/01/17 13:02:24;;;;;;;44.53;20.83;;;;;;;0.41;86.61;96390.53;5059750;28;20461;-49
2021/01/17 13:04:51;;;;;;;44.17;21.70;;;;;;;0.33;86.65;96392.69;5048969;27;20049;-43
2021/01/17 13:07:18;;;;;;;43.00;22.17;;;;;;;0.16;87.27;96393.59;5061235;28;20451;-44
2021/01/17 13:09:45;;;;;;;41.53;21.25;;;;;;;0.02;86.91;96401.28;5054465;28;20067;-46
2021/01/17 13:12:12;;;;;;;46.47;23.17;;;;;;;0.08;87.80;96397.56;5059279;28;20574;-43
2021/01/17 13:14:40;;;;;;;42.92;22.40;;;;;;;-0.09;87.94;96401.88;5052812;28;20048;-45
2021/01/17 13:17:06;;;;;;;42.92;20.90;;;;;;;-0.15;89.74;96406.53;5052078;28;20519;-46
2021/01/17 13:19:58;;;;;;;43.80;22.88;;;;;;;-0.22;90.74;96405.19;5039529;28;20462;-42
2021/01/17 13:22:27;;;;;;;43.63;21.88;;;;;;;-0.28;90.50;96412.34;5044900;28;20082;-43
2021/01/17 13:24:54;;;;;;;48.47;23.17;;;;;;;-0.16;92.36;96412.66;5041286;28;20055;-43
2021/01/17 13:27:21;;;;;;;45.30;22.23;;;;;;;-0.34;90.75;96412.69;5044867;28;20190;-43
2021/01/17 13:29:50;;;;;;;48.35;23.65;;;;;;;-0.19;91.20;96416.22;5037245;28;20515;-46
2021/01/17 13:32:18;;;;;;;44.80;22.35;;;;;;;-0.17;90.81;96418.72;5033373;28;20041;-43
2021/01/17 13:34:44;;;;;;;46.28;22.23;;;;;;;-0.05;92.14;96420.69;5033764;28;20423;-44
2021/01/17 13:37:15;;;;;;;49.25;23.05;;;;;;;-0.08;91.93;96428.63;5039625;28;20059;-46
2021/01/17 13:39:45;;;;;;;48.70;22.85;;;;;;;-0.30;91.07;96429.75;5047410;23;20110;-48
2021/01/17 13:42:12;;;;;;;49.20;23.15;;;;;;;-0.41;93.03;96429.47;5003339;28;20068;-48
2021/01/17 13:44:39;;;;;;;46.92;22.95;;;;;;;-0.47;93.68;96437.53;5005876;28;20512;-47
2021/01/17 13:47:07;;;;;;;45.83;22.40;;;;;;;-0.44;94.70;96437.38;5003734;28;20046;-48
2021/01/17 13:49:33;;;;;;;48.33;23.10;;;;;;;-0.42;94.97;96445.06;5001176;28;20494;-46
2021/01/17 13:52:02;;;;;;;50.03;22.80;;;;;;;-0.26;94.75;96441.63;5000158;28;20057;-52
2021/01/17 13:54:30;;;;;;;49.47;23.05;;;;;;;-0.37;95.85;96441.34;4999425;28;20093;-47
2021/01/17 13:56:58;;;;;;;54.42;24.20;;;;;;;-0.35;96.04;96444.66;5004992;28;20057;-49
2021/01/17 13:59:26;;;;;;;51.47;24.85;;;;;;;-0.70;96.19;96453.38;5020721;28;20542;-50
2021/01/17 14:01:53;;;;;;;52.40;25.40;;;;;;;-1.00;97.89;96453.97;5006238;28;20038;-49
2021/01/17 14:04:21;;;;;;;50.17;22.85;;;;;;;-1.24;99.61;96456.84;5000652;28;20042;-47
2021/01/17 14:06:47;;;;;;;50.70;23.73;;;;;;;-1.00;100.00;96466.91;4999857;28;20042;-53
2021/01/17 14:09:16;;;;;;;53.70;24.13;;;;;;;-1.07;100.00;96463.78;5002941;28;20103;-51
2021/01/17 14:11:43;;;;;;;50.70;23.83;;;;;;;-0.80;100.00;96473.72;5002917;28;20049;-51
2021/01/17 14:14:10;;;;;;;52.78;24.52;;;;;;;-0.72;100.00;96458.66;5018338;28;20049;-51
2021/01/17 14:16:41;;;;;;;55.05;23.83;;;;;;;-0.80;98.67;96465.94;5019646;28;20468;-49
2021/01/17 14:19:09;;;;;;;51.22;24.90;;;;;;;-0.64;98.96;96466.88;5023380;28;20073;-45
2021/01/17 14:21:41;;;;;;;51.65;24.50;;;;;;;-0.44;98.65;96478.00;5015957;28;20107;-49
2021/01/17 14:24:09;;;;;;;52.42;24.45;;;;;;;-0.27;97.34;96476.22;5019986;28;20103;-48
2021/01/17 14:26:36;;;;;;;54.45;25.33;;;;;;;-0.21;95.78;96479.41;4999423;28;20530;-48
2021/01/17 14:29:04;;;;;;;52.83;24.70;;;;;;;0.22;93.65;96489.22;5005549;28;20037;-45
2021/01/17 14:31:32;;;;;;;50.53;24.85;;;;;;;0.26;92.08;96483.88;5007139;28;20041;-51
2021/01/17 14:34:01;;;;;;;63.92;25.83;;;;;;;0.79;91.29;96480.16;4995666;28;20080;-48
2021/01/17 14:36:33;;;;;;;53.92;24.58;;;;;;;1.02;88.34;96492.69;5002760;28;20504;-46
2021/01/17 14:39:01;;;;;;;50.47;25.17;;;;;;;0.92;86.87;96487.19;5002058;28;20428;-50
2021/01/17 14:41:28;;;;;;;53.08;25.55;;;;;;;1.12;86.87;96488.66;5018071;28;20144;-49
2021/01/17 14:43:55;;;;;;;51.17;25.80;;;;;;;0.77;86.36;96493.22;5014596;28;20041;-51
2021/01/17 14:46:22;;;;;;;49.72;25.05;;;;;;;0.63;88.94;96496.56;5008178;28;20045;-48
2021/01/17 14:48:49;;;;;;;51.72;25.27;;;;;;;0.68;89.64;96504.94;4987470;28;20047;-49
2021/01/17 14:51:20;;;;;;;49.50;25.70;;;;;;;0.51;88.51;96502.41;5017051;28;20057;-47
2021/01/17 14:53:48;;;;;;;51.05;24.70;;;;;;;0.63;89.87;96504.34;5002231;28;20034;-53
2021/01/17 14:56:16;;;;;;;55.25;25.85;;;;;;;0.41;89.66;96514.19;5005044;28;20104;-48
2021/01/17 14:58:43;;;;;;;51.53;24.83;;;;;;;0.18;90.71;96516.25;4996837;28;20227;-51
2021/01/17 15:01:10;;;;;;;49.50;25.00;;;;;;;0.16;91.56;96525.00;4999476;28;20030;-51
2021/01/17 15:03:37;;;;;;;50.95;25.20;;;;;;;-0.08;93.66;96519.34;5003875;28;20049;-46
2021/01/17 15:06:05;;;;;;;49.42;24.95;;;;;;;-0.18;95.94;96525.91;5017698;28;20056;-51
2021/01/17 15:08:32;;;;;;;52.85;25.35;;;;;;;-0.35;96.52;96524.97;5022102;28;20435;-49
2021/01/17 15:10:59;;;;;;;49.45;24.45;;;;;;;-0.50;97.96;96536.94;5019245;28;20045;-50
2021/01/17 15:13:30;;;;;;;49.25;23.95;;;;;;;-0.52;98.73;96540.53;5018173;28;20038;-49
2021/01/17 15:16:01;;;;;;;49.92;25.30;;;;;;;-0.57;98.45;96539.91;5009983;28;20121;-52
2021/01/17 15:18:29;;;;;;;58.28;27.63;;;;;;;-0.87;100.00;96540.47;5002624;28;20149;-49
2021/01/17 15:20:59;;;;;;;53.65;26.25;;;;;;;-1.09;100.00;96543.25;5002194;28;20520;-52
2021/01/17 15:23:26;;;;;;;59.33;27.50;;;;;;;-1.20;100.00;96546.34;4998547;28;20496;-50
2021/01/17 15:25:54;;;;;;;59.08;26.83;;;;;;;-1.33;100.00;96552.13;5015661;28;20054;-52
2021/01/17 15:28:21;;;;;;;59.58;28.70;;;;;;;-1.50;100.00;96547.72;5011345;28;20052;-53
2021/01/17 15:30:50;;;;;;;58.10;25.38;;;;;;;-1.55;100.00;96558.28;5001255;28;20068;-50
2021/01/17 15:33:27;;;;;;;58.65;26.35;;;;;;;-1.52;100.00;96558.13;5007319;28;20096;-52
2021/01/17 15:35:56;;;;;;;61.10;27.38;;;;;;;-1.67;100.00;96557.06;5010490;28;20045;-49
2021/01/17 15:38:23;;;;;;;63.90;27.52;;;;;;;-1.77;100.00;96558.38;5002839;28;20065;-51
2021/01/17 15:40:51;;;;;;;61.85;26.15;;;;;;;-1.81;100.00;96561.16;4999556;28;20042;-51
2021/01/17 15:43:18;;;;;;;56.38;26.30;;;;;;;-1.95;100.00;96567.75;5015770;28;20107;-47
2021/01/17 15:45:45;;;;;;;65.40;27.50;;;;;;;-2.02;100.00;96568.09;5021216;28;20046;-50
2021/01/17 15:48:13;;;;;;;60.15;27.23;;;;;;;-2.11;100.00;96573.66;5022052;28;20056;-45
2021/01/17 15:50:40;;;;;;;61.10;26.98;;;;;;;-2.18;100.00;96581.66;5000034;28;20042;-46
2021/01/17 15:53:08;;;;;;;61.88;26.98;;;;;;;-2.19;100.00;96582.56;5019498;28;20405;-49
2021/01/17 15:55:35;;;;;;;60.63;26.33;;;;;;;-2.21;100.00;96584.34;5001294;28;20037;-48
2021/01/17 15:58:02;;;;;;;60.03;27.45;;;;;;;-2.23;100.00;96578.44;5008522;28;20037;-47
2021/01/17 16:00:29;;;;;;;73.18;30.65;;;;;;;-2.37;100.00;96583.31;5016238;28;20045;-48
2021/01/17 16:02:56;;;;;;;66.60;26.92;;;;;;;-2.40;100.00;96589.44;5025975;28;20500;-48
2021/01/17 16:05:24;;;;;;;61.17;27.60;;;;;;;-2.43;100.00;96586.16;5002880;28;20045;-47
2021/01/17 16:07:52;;;;;;;63.38;27.48;;;;;;;-2.56;100.00;96590.97;5019837;28;20064;-50
2021/01/17 16:10:20;;;;;;;66.43;27.15;;;;;;;-2.61;100.00;96597.22;5011934;28;20030;-50
2021/01/17 16:13:05;;;;;;;64.60;26.83;;;;;;;-2.54;100.00;96598.66;5003872;28;20052;-48
2021/01/17 16:15:32;;;;;;;64.07;27.55;;;;;;;-2.58;100.00;96602.25;5011937;28;20067;-49
2021/01/17 16:17:59;;;;;;;68.80;28.38;;;;;;;-2.74;100.00;96607.19;4998275;28;20049;-49
2021/01/17 16:20:27;;;;;;;72.32;30.83;;;;;;;-2.71;100.00;96615.66;5011120;28;20061;-46
2021/01/17 16:22:57;;;;;;;68.20;27.50;;;;;;;-2.75;100.00;96619.25;5019937;28;20049;-48
2021/01/17 16:25:24;;;;;;;65.03;28.10;;;;;;;-2.86;100.00;96608.50;5003454;28;20132;-51
2021/01/17 16:27:51;;;;;;;69.63;29.27;;;;;;;-2.96;100.00;96622.63;5011991;28;20095;-48
2021/01/17 16:30:20;;;;;;;77.90;32.08;;;;;;;-2.89;100.00;96622.38;5019081;28;20038;-49
2021/01/17 16:32:47;;;;;;;66.43;28.25;;;;;;;-2.87;100.00;96628.28;5034603;28;20044;-48
2021/01/17 16:35:15;;;;;;;64.95;28.88;;;;;;;-2.96;100.00;96625.22;5021368;28;20270;-54
2021/01/17 16:37:43;;;;;;;70.45;28.23;;;;;;;-2.95;100.00;96629.50;5016201;28;20045;-51
2021/01/17 16:40:12;;;;;;;70.45;30.77;;;;;;;-2.91;100.00;96631.06;5014360;28;20108;-51
2021/01/17 16:42:39;;;;;;;76.45;31.52;;;;;;;-2.87;100.00;96641.19;5018658;28;20042;-50
2021/01/17 16:45:07;;;;;;;68.38;29.13;;;;;;;-2.89;100.00;96648.19;5021121;28;20034;-47
2021/01/17 16:47:35;;;;;;;65.53;27.10;;;;;;;-3.06;100.00;96652.25;5022068;28;20088;-50
2021/01/17 16:50:07;;;;;;;61.67;26.50;;;;;;;-3.05;100.00;96653.97;5005674;28;20186;-48
2021/01/17 16:52:34;;;;;;;68.30;28.45;;;;;;;-3.06;100.00;96655.72;5003478;28;20084;-49
2021/01/17 16:55:03;;;;;;;70.97;27.95;;;;;;;-3.04;100.00;96661.63;5032764;28;20049;-47
2021/01/17 16:57:30;;;;;;;58.08;25.17;;;;;;;-3.11;100.00;96665.34;5005952;28;20055;-50